sensor_id;sensor_type;location;lat;lon;timestamp;temperature;humidity
68109;SHT30;54893;49.864;19.084;2023-04-08T00:01:37;1.76;99.99
68109;SHT30;54893;49.864;19.084;2023-04-08T00:06:37;1.72;99.99
68109;SHT30;54893;49.864;19.084;2023-04-08T00:11:38;1.70;99.99
68109;SHT30;54893;49.864;19.084;2023-04-08T00:16:38;1.67;99.99
68109;SHT30;54893;49.864;19.084;2023-04-08T00:21:39;1.69;99.99
68109;SHT30;54893;49.864;19.084;2023-04-08T00:26:39;1.72;99.94
68109;SHT30;54893;49.864;19.084;2023-04-08T00:31:40;1.70;99.67
68109;SHT30;54893;49.864;19.084;2023-04-08T00:36:40;1.70;99.55
68109;SHT30;54893;49.864;19.084;2023-04-08T00:41:41;1.70;99.38
68109;SHT30;54893;49.864;19.084;2023-04-08T00:46:41;1.67;99.62
68109;SHT30;54893;49.864;19.084;2023-04-08T00:51:41;1.69;99.52
68109;SHT30;54893;49.864;19.084;2023-04-08T00:56:43;1.70;99.20
68109;SHT30;54893;49.864;19.084;2023-04-08T01:01:58;1.72;98.73
68109;SHT30;54893;49.864;19.084;2023-04-08T01:07:17;1.69;98.58
68109;SHT30;54893;49.864;19.084;2023-04-08T01:12:23;1.69;98.41
68109;SHT30;54893;49.864;19.084;2023-04-08T01:17:26;1.69;98.40
68109;SHT30;54893;49.864;19.084;2023-04-08T01:27:43;1.73;98.59
68109;SHT30;54893;49.864;19.084;2023-04-08T01:32:44;1.70;98.57
68109;SHT30;54893;49.864;19.084;2023-04-08T01:37:48;1.69;98.87
68109;SHT30;54893;49.864;19.084;2023-04-08T01:42:54;1.72;98.94
68109;SHT30;54893;49.864;19.084;2023-04-08T01:47:57;1.72;98.96
68109;SHT30;54893;49.864;19.084;2023-04-08T01:52:59;1.72;98.85
68109;SHT30;54893;49.864;19.084;2023-04-08T01:58:01;1.73;98.47
68109;SHT30;54893;49.864;19.084;2023-04-08T02:03:05;1.70;98.73
68109;SHT30;54893;49.864;19.084;2023-04-08T02:08:05;1.74;98.71
68109;SHT30;54893;49.864;19.084;2023-04-08T02:13:06;1.70;99.10
68109;SHT30;54893;49.864;19.084;2023-04-08T02:18:16;1.70;99.04
68109;SHT30;54893;49.864;19.084;2023-04-08T02:23:23;1.72;98.93
68109;SHT30;54893;49.864;19.084;2023-04-08T02:28:25;1.69;98.92
68109;SHT30;54893;49.864;19.084;2023-04-08T02:33:26;1.69;98.84
68109;SHT30;54893;49.864;19.084;2023-04-08T02:38:27;1.67;98.85
68109;SHT30;54893;49.864;19.084;2023-04-08T02:43:29;1.70;98.78
68109;SHT30;54893;49.864;19.084;2023-04-08T02:48:33;1.67;98.57
68109;SHT30;54893;49.864;19.084;2023-04-08T02:53:33;1.69;98.51
68109;SHT30;54893;49.864;19.084;2023-04-08T02:58:34;1.64;98.55
68109;SHT30;54893;49.864;19.084;2023-04-08T03:03:34;1.66;98.49
68109;SHT30;54893;49.864;19.084;2023-04-08T03:08:35;1.62;98.68
68109;SHT30;54893;49.864;19.084;2023-04-08T03:13:35;1.60;98.85
68109;SHT30;54893;49.864;19.084;2023-04-08T03:18:36;1.59;98.95
68109;SHT30;54893;49.864;19.084;2023-04-08T03:23:36;1.52;99.04
68109;SHT30;54893;49.864;19.084;2023-04-08T03:28:36;1.50;99.27
68109;SHT30;54893;49.864;19.084;2023-04-08T03:33:37;1.52;99.05
68109;SHT30;54893;49.864;19.084;2023-04-08T03:38:37;1.48;98.87
68109;SHT30;54893;49.864;19.084;2023-04-08T03:43:37;1.45;98.87
68109;SHT30;54893;49.864;19.084;2023-04-08T03:48:38;1.45;98.71
68109;SHT30;54893;49.864;19.084;2023-04-08T03:53:38;1.45;98.72
68109;SHT30;54893;49.864;19.084;2023-04-08T03:58:39;1.46;98.78
68109;SHT30;54893;49.864;19.084;2023-04-08T04:03:39;1.43;98.85
68109;SHT30;54893;49.864;19.084;2023-04-08T04:08:40;1.42;98.84
68109;SHT30;54893;49.864;19.084;2023-04-08T04:13:40;1.39;98.89
68109;SHT30;54893;49.864;19.084;2023-04-08T04:18:41;1.42;98.84
68109;SHT30;54893;49.864;19.084;2023-04-08T04:23:41;1.43;98.89
68109;SHT30;54893;49.864;19.084;2023-04-08T04:28:41;1.48;99.07
68109;SHT30;54893;49.864;19.084;2023-04-08T04:33:42;1.55;98.94
68109;SHT30;54893;49.864;19.084;2023-04-08T04:38:43;1.60;98.76
68109;SHT30;54893;49.864;19.084;2023-04-08T04:43:43;1.67;98.50
68109;SHT30;54893;49.864;19.084;2023-04-08T04:48:43;1.72;98.14
68109;SHT30;54893;49.864;19.084;2023-04-08T04:53:44;1.82;97.60
68109;SHT30;54893;49.864;19.084;2023-04-08T04:58:45;1.76;97.90
68109;SHT30;54893;49.864;19.084;2023-04-08T05:03:45;1.87;97.37
68109;SHT30;54893;49.864;19.084;2023-04-08T05:08:45;1.79;97.47
68109;SHT30;54893;49.864;19.084;2023-04-08T05:13:46;1.77;97.54
68109;SHT30;54893;49.864;19.084;2023-04-08T05:18:46;1.96;97.75
68109;SHT30;54893;49.864;19.084;2023-04-08T05:23:47;1.80;97.04
68109;SHT30;54893;49.864;19.084;2023-04-08T05:28:48;1.72;97.24
68109;SHT30;54893;49.864;19.084;2023-04-08T05:33:48;1.73;97.30
68109;SHT30;54893;49.864;19.084;2023-04-08T05:38:49;1.82;97.31
68109;SHT30;54893;49.864;19.084;2023-04-08T05:43:49;1.80;97.02
68109;SHT30;54893;49.864;19.084;2023-04-08T05:48:49;1.90;97.43
68109;SHT30;54893;49.864;19.084;2023-04-08T05:53:50;1.87;96.79
68109;SHT30;54893;49.864;19.084;2023-04-08T05:58:50;1.94;96.73
68109;SHT30;54893;49.864;19.084;2023-04-08T06:03:50;2.02;96.33
68109;SHT30;54893;49.864;19.084;2023-04-08T06:08:51;2.02;96.35
68109;SHT30;54893;49.864;19.084;2023-04-08T06:13:52;2.11;96.19
68109;SHT30;54893;49.864;19.084;2023-04-08T06:18:52;2.20;96.08
68109;SHT30;54893;49.864;19.084;2023-04-08T06:23:52;2.60;95.77
68109;SHT30;54893;49.864;19.084;2023-04-08T06:28:53;2.74;94.91
68109;SHT30;54893;49.864;19.084;2023-04-08T06:33:53;2.66;94.96
68109;SHT30;54893;49.864;19.084;2023-04-08T06:38:54;2.66;95.27
68109;SHT30;54893;49.864;19.084;2023-04-08T06:43:55;2.62;95.20
68109;SHT30;54893;49.864;19.084;2023-04-08T06:48:55;2.50;94.87
68109;SHT30;54893;49.864;19.084;2023-04-08T06:53:56;2.42;94.93
68109;SHT30;54893;49.864;19.084;2023-04-08T06:58:56;2.66;95.15
68109;SHT30;54893;49.864;19.084;2023-04-08T07:03:57;2.61;95.20
68109;SHT30;54893;49.864;19.084;2023-04-08T07:08:57;2.48;94.63
68109;SHT30;54893;49.864;19.084;2023-04-08T07:13:57;2.65;95.02
68109;SHT30;54893;49.864;19.084;2023-04-08T07:18:58;2.72;94.21
68109;SHT30;54893;49.864;19.084;2023-04-08T07:23:58;2.82;94.20
68109;SHT30;54893;49.864;19.084;2023-04-08T07:28:58;2.82;93.71
68109;SHT30;54893;49.864;19.084;2023-04-08T07:33:59;3.23;93.80
68109;SHT30;54893;49.864;19.084;2023-04-08T07:38:59;2.82;93.21
68109;SHT30;54893;49.864;19.084;2023-04-08T07:44:00;3.23;93.52
68109;SHT30;54893;49.864;19.084;2023-04-08T07:49:00;3.74;92.52
68109;SHT30;54893;49.864;19.084;2023-04-08T07:54:00;2.91;92.49
68109;SHT30;54893;49.864;19.084;2023-04-08T07:59:01;3.98;91.85
68109;SHT30;54893;49.864;19.084;2023-04-08T08:04:03;4.17;89.84
68109;SHT30;54893;49.864;19.084;2023-04-08T08:09:03;4.71;89.50
68109;SHT30;54893;49.864;19.084;2023-04-08T08:14:04;4.72;89.32
68109;SHT30;54893;49.864;19.084;2023-04-08T08:19:04;4.31;88.77
68109;SHT30;54893;49.864;19.084;2023-04-08T08:24:06;5.02;90.35
68109;SHT30;54893;49.864;19.084;2023-04-08T08:29:07;5.22;88.62
68109;SHT30;54893;49.864;19.084;2023-04-08T08:34:07;5.95;87.58
68109;SHT30;54893;49.864;19.084;2023-04-08T08:39:08;6.01;87.52
68109;SHT30;54893;49.864;19.084;2023-04-08T08:44:08;5.56;86.30
68109;SHT30;54893;49.864;19.084;2023-04-08T08:49:09;7.29;87.14
68109;SHT30;54893;49.864;19.084;2023-04-08T08:54:10;7.36;83.59
68109;SHT30;54893;49.864;19.084;2023-04-08T08:59:10;8.06;83.17
68109;SHT30;54893;49.864;19.084;2023-04-08T09:04:19;7.85;84.00
68109;SHT30;54893;49.864;19.084;2023-04-08T09:09:26;8.25;82.21
68109;SHT30;54893;49.864;19.084;2023-04-08T09:14:26;8.37;81.17
68109;SHT30;54893;49.864;19.084;2023-04-08T09:19:26;8.58;80.96
68109;SHT30;54893;49.864;19.084;2023-04-08T09:24:28;7.98;81.48
68109;SHT30;54893;49.864;19.084;2023-04-08T09:29:29;8.50;79.99
68109;SHT30;54893;49.864;19.084;2023-04-08T09:34:30;9.71;78.79
68109;SHT30;54893;49.864;19.084;2023-04-08T09:39:33;10.29;76.61
68109;SHT30;54893;49.864;19.084;2023-04-08T09:44:34;9.71;78.20
68109;SHT30;54893;49.864;19.084;2023-04-08T09:49:39;9.26;78.93
68109;SHT30;54893;49.864;19.084;2023-04-08T09:54:53;9.75;74.21
68109;SHT30;54893;49.864;19.084;2023-04-08T10:00:03;10.31;74.05
68109;SHT30;54893;49.864;19.084;2023-04-08T10:05:05;10.49;72.81
68109;SHT30;54893;49.864;19.084;2023-04-08T10:10:07;11.38;71.75
68109;SHT30;54893;49.864;19.084;2023-04-08T10:25:37;11.84;68.30
68109;SHT30;54893;49.864;19.084;2023-04-08T10:35:41;11.03;66.31
68109;SHT30;54893;49.864;19.084;2023-04-08T10:40:43;10.26;72.72
68109;SHT30;54893;49.864;19.084;2023-04-08T11:02:14;10.14;70.82
68109;SHT30;54893;49.864;19.084;2023-04-08T11:07:15;10.25;70.37
68109;SHT30;54893;49.864;19.084;2023-04-08T11:12:17;10.44;69.34
68109;SHT30;54893;49.864;19.084;2023-04-08T11:17:18;10.66;69.93
68109;SHT30;54893;49.864;19.084;2023-04-08T11:22:19;9.81;69.72
68109;SHT30;54893;49.864;19.084;2023-04-08T11:27:20;9.33;72.40
68109;SHT30;54893;49.864;19.084;2023-04-08T11:32:22;9.95;72.62
68109;SHT30;54893;49.864;19.084;2023-04-08T11:37:24;9.50;72.12
68109;SHT30;54893;49.864;19.084;2023-04-08T11:42:29;9.65;72.31
68109;SHT30;54893;49.864;19.084;2023-04-08T11:47:31;9.46;71.82
68109;SHT30;54893;49.864;19.084;2023-04-08T11:52:46;8.80;73.36
68109;SHT30;54893;49.864;19.084;2023-04-08T11:57:47;8.38;74.28
68109;SHT30;54893;49.864;19.084;2023-04-08T12:02:48;8.56;73.69
68109;SHT30;54893;49.864;19.084;2023-04-08T12:07:48;8.94;73.41
68109;SHT30;54893;49.864;19.084;2023-04-08T12:12:48;9.12;73.11
68109;SHT30;54893;49.864;19.084;2023-04-08T12:17:49;9.77;74.09
68109;SHT30;54893;49.864;19.084;2023-04-08T12:22:49;9.22;72.90
68109;SHT30;54893;49.864;19.084;2023-04-08T12:27:49;9.40;73.62
68109;SHT30;54893;49.864;19.084;2023-04-08T12:32:50;9.38;72.93
68109;SHT30;54893;49.864;19.084;2023-04-08T12:37:50;9.31;74.94
68109;SHT30;54893;49.864;19.084;2023-04-08T12:55:27;9.57;72.60
68109;SHT30;54893;49.864;19.084;2023-04-08T13:00:27;10.09;73.71
68109;SHT30;54893;49.864;19.084;2023-04-08T13:05:27;9.51;73.39
68109;SHT30;54893;49.864;19.084;2023-04-08T13:10:28;9.54;73.64
68109;SHT30;54893;49.864;19.084;2023-04-08T13:15:28;8.79;75.17
68109;SHT30;54893;49.864;19.084;2023-04-08T13:20:28;8.58;76.08
68109;SHT30;54893;49.864;19.084;2023-04-08T13:25:29;8.70;75.90
68109;SHT30;54893;49.864;19.084;2023-04-08T13:30:29;8.79;75.56
68109;SHT30;54893;49.864;19.084;2023-04-08T13:35:30;8.55;76.37
68109;SHT30;54893;49.864;19.084;2023-04-08T13:40:31;8.77;76.82
68109;SHT30;54893;49.864;19.084;2023-04-08T13:45:32;8.77;75.23
68109;SHT30;54893;49.864;19.084;2023-04-08T13:50:32;9.16;75.73
68109;SHT30;54893;49.864;19.084;2023-04-08T13:55:33;8.87;74.98
68109;SHT30;54893;49.864;19.084;2023-04-08T14:00:33;8.94;77.20
68109;SHT30;54893;49.864;19.084;2023-04-08T14:05:33;8.29;77.16
68109;SHT30;54893;49.864;19.084;2023-04-08T14:10:34;8.68;77.43
68109;SHT30;54893;49.864;19.084;2023-04-08T14:15:34;8.11;79.07
68109;SHT30;54893;49.864;19.084;2023-04-08T14:20:35;8.27;79.11
68109;SHT30;54893;49.864;19.084;2023-04-08T14:25:35;8.82;77.13
68109;SHT30;54893;49.864;19.084;2023-04-08T14:30:36;8.32;79.41
68109;SHT30;54893;49.864;19.084;2023-04-08T14:35:36;8.27;79.83
68109;SHT30;54893;49.864;19.084;2023-04-08T14:40:37;7.80;80.90
68109;SHT30;54893;49.864;19.084;2023-04-08T14:45:37;7.60;82.13
68109;SHT30;54893;49.864;19.084;2023-04-08T14:50:37;7.66;81.43
68109;SHT30;54893;49.864;19.084;2023-04-08T14:55:38;8.45;80.21
68109;SHT30;54893;49.864;19.084;2023-04-08T15:00:38;8.15;80.74
68109;SHT30;54893;49.864;19.084;2023-04-08T15:05:43;7.99;81.32
68109;SHT30;54893;49.864;19.084;2023-04-08T15:10:44;7.34;82.17
68109;SHT30;54893;49.864;19.084;2023-04-08T15:15:44;7.31;82.97
68109;SHT30;54893;49.864;19.084;2023-04-08T15:20:45;7.34;82.32
68109;SHT30;54893;49.864;19.084;2023-04-08T15:25:45;7.33;82.89
68109;SHT30;54893;49.864;19.084;2023-04-08T15:30:46;8.01;80.52
68109;SHT30;54893;49.864;19.084;2023-04-08T15:35:47;7.23;82.72
68109;SHT30;54893;49.864;19.084;2023-04-08T15:40:48;6.65;84.12
68109;SHT30;54893;49.864;19.084;2023-04-08T15:45:48;6.79;83.57
68109;SHT30;54893;49.864;19.084;2023-04-08T15:50:49;6.75;83.26
68109;SHT30;54893;49.864;19.084;2023-04-08T15:55:49;6.61;84.90
68109;SHT30;54893;49.864;19.084;2023-04-08T16:00:50;6.92;82.33
68109;SHT30;54893;49.864;19.084;2023-04-08T16:05:51;6.88;82.35
68109;SHT30;54893;49.864;19.084;2023-04-08T16:10:51;6.55;83.51
68109;SHT30;54893;49.864;19.084;2023-04-08T16:15:57;6.55;83.85
68109;SHT30;54893;49.864;19.084;2023-04-08T16:20:57;6.55;83.16
68109;SHT30;54893;49.864;19.084;2023-04-08T16:25:58;6.46;83.76
68109;SHT30;54893;49.864;19.084;2023-04-08T16:30:59;6.13;84.89
68109;SHT30;54893;49.864;19.084;2023-04-08T16:35:59;6.03;85.61
68109;SHT30;54893;49.864;19.084;2023-04-08T16:41:00;6.04;85.66
68109;SHT30;54893;49.864;19.084;2023-04-08T16:46:15;6.10;84.93
68109;SHT30;54893;49.864;19.084;2023-04-08T16:51:15;5.80;86.11
68109;SHT30;54893;49.864;19.084;2023-04-08T16:56:16;5.66;86.65
68109;SHT30;54893;49.864;19.084;2023-04-08T17:01:17;5.42;87.28
68109;SHT30;54893;49.864;19.084;2023-04-08T17:06:18;5.25;88.48
68109;SHT30;54893;49.864;19.084;2023-04-08T17:11:19;5.19;89.32
68109;SHT30;54893;49.864;19.084;2023-04-08T17:16:20;5.15;89.10
68109;SHT30;54893;49.864;19.084;2023-04-08T17:21:21;5.08;88.74
68109;SHT30;54893;49.864;19.084;2023-04-08T17:26:21;5.08;88.62
68109;SHT30;54893;49.864;19.084;2023-04-08T17:31:22;5.03;87.75
68109;SHT30;54893;49.864;19.084;2023-04-08T17:36:22;5.00;89.89
68109;SHT30;54893;49.864;19.084;2023-04-08T17:41:23;4.91;90.05
68109;SHT30;54893;49.864;19.084;2023-04-08T17:46:23;4.83;90.98
68109;SHT30;54893;49.864;19.084;2023-04-08T17:51:23;4.71;91.06
68109;SHT30;54893;49.864;19.084;2023-04-08T17:56:25;4.55;91.34
68109;SHT30;54893;49.864;19.084;2023-04-08T18:01:26;4.45;91.56
68109;SHT30;54893;49.864;19.084;2023-04-08T18:06:27;4.42;90.56
68109;SHT30;54893;49.864;19.084;2023-04-08T18:11:27;4.44;90.96
68109;SHT30;54893;49.864;19.084;2023-04-08T18:16:27;4.38;88.50
68109;SHT30;54893;49.864;19.084;2023-04-08T18:21:28;4.42;90.38
68109;SHT30;54893;49.864;19.084;2023-04-08T18:26:28;4.42;88.50
68109;SHT30;54893;49.864;19.084;2023-04-08T18:31:28;4.38;91.94
68109;SHT30;54893;49.864;19.084;2023-04-08T18:36:29;4.34;88.71
68109;SHT30;54893;49.864;19.084;2023-04-08T18:41:30;4.38;89.41
68109;SHT30;54893;49.864;19.084;2023-04-08T18:46:31;4.28;91.69
68109;SHT30;54893;49.864;19.084;2023-04-08T18:51:31;4.22;92.27
68109;SHT30;54893;49.864;19.084;2023-04-08T18:56:32;4.14;91.75
68109;SHT30;54893;49.864;19.084;2023-04-08T19:01:33;4.16;91.26
68109;SHT30;54893;49.864;19.084;2023-04-08T19:06:35;4.13;91.94
68109;SHT30;54893;49.864;19.084;2023-04-08T19:11:36;4.10;91.88
68109;SHT30;54893;49.864;19.084;2023-04-08T19:16:37;4.05;91.41
68109;SHT30;54893;49.864;19.084;2023-04-08T19:21:37;4.05;91.32
68109;SHT30;54893;49.864;19.084;2023-04-08T19:26:37;4.05;92.77
68109;SHT30;54893;49.864;19.084;2023-04-08T19:31:38;4.00;92.90
68109;SHT30;54893;49.864;19.084;2023-04-08T19:36:38;3.98;92.84
68109;SHT30;54893;49.864;19.084;2023-04-08T19:41:39;3.98;92.97
68109;SHT30;54893;49.864;19.084;2023-04-08T19:46:39;3.98;93.18
68109;SHT30;54893;49.864;19.084;2023-04-08T19:51:39;3.94;93.37
68109;SHT30;54893;49.864;19.084;2023-04-08T19:56:40;3.90;92.18
68109;SHT30;54893;49.864;19.084;2023-04-08T20:01:41;3.95;94.00
68109;SHT30;54893;49.864;19.084;2023-04-08T20:06:42;3.91;94.33
68109;SHT30;54893;49.864;19.084;2023-04-08T20:11:42;3.86;94.27
68109;SHT30;54893;49.864;19.084;2023-04-08T20:16:43;3.84;94.46
68109;SHT30;54893;49.864;19.084;2023-04-08T20:21:43;3.84;94.32
68109;SHT30;54893;49.864;19.084;2023-04-08T20:26:44;3.83;94.05
68109;SHT30;54893;49.864;19.084;2023-04-08T20:31:44;3.87;95.02
68109;SHT30;54893;49.864;19.084;2023-04-08T20:36:44;3.89;94.37
68109;SHT30;54893;49.864;19.084;2023-04-08T20:41:45;3.86;93.45
68109;SHT30;54893;49.864;19.084;2023-04-08T20:46:46;3.84;94.04
68109;SHT30;54893;49.864;19.084;2023-04-08T20:51:46;3.84;94.20
68109;SHT30;54893;49.864;19.084;2023-04-08T20:56:46;3.89;93.04
68109;SHT30;54893;49.864;19.084;2023-04-08T21:01:47;3.87;93.34
68109;SHT30;54893;49.864;19.084;2023-04-08T21:06:47;3.83;91.77
68109;SHT30;54893;49.864;19.084;2023-04-08T21:11:48;3.83;92.41
68109;SHT30;54893;49.864;19.084;2023-04-08T21:16:48;3.86;90.21
68109;SHT30;54893;49.864;19.084;2023-04-08T21:21:48;3.77;90.97
68109;SHT30;54893;49.864;19.084;2023-04-08T21:26:48;3.72;90.81
68109;SHT30;54893;49.864;19.084;2023-04-08T21:31:49;3.74;93.63
68109;SHT30;54893;49.864;19.084;2023-04-08T21:36:49;3.67;94.52
68109;SHT30;54893;49.864;19.084;2023-04-08T21:41:50;3.64;94.78
68109;SHT30;54893;49.864;19.084;2023-04-08T21:46:51;3.63;94.14
68109;SHT30;54893;49.864;19.084;2023-04-08T21:51:51;3.64;94.74
68109;SHT30;54893;49.864;19.084;2023-04-08T21:56:52;3.67;94.91
68109;SHT30;54893;49.864;19.084;2023-04-08T22:01:52;3.64;95.16
68109;SHT30;54893;49.864;19.084;2023-04-08T22:06:53;3.63;95.34
68109;SHT30;54893;49.864;19.084;2023-04-08T22:11:53;3.60;95.48
68109;SHT30;54893;49.864;19.084;2023-04-08T22:16:54;3.55;95.51
68109;SHT30;54893;49.864;19.084;2023-04-08T22:21:54;3.50;95.58
68109;SHT30;54893;49.864;19.084;2023-04-08T22:26:54;3.46;95.78
68109;SHT30;54893;49.864;19.084;2023-04-08T22:31:55;3.46;95.52
68109;SHT30;54893;49.864;19.084;2023-04-08T22:36:55;3.46;95.65
68109;SHT30;54893;49.864;19.084;2023-04-08T22:41:56;3.46;95.63
68109;SHT30;54893;49.864;19.084;2023-04-08T22:46:56;3.44;95.76
68109;SHT30;54893;49.864;19.084;2023-04-08T22:51:56;3.44;95.94
68109;SHT30;54893;49.864;19.084;2023-04-08T22:56:57;3.50;95.56
68109;SHT30;54893;49.864;19.084;2023-04-08T23:01:57;3.50;95.41
68109;SHT30;54893;49.864;19.084;2023-04-08T23:06:58;3.49;95.41
68109;SHT30;54893;49.864;19.084;2023-04-08T23:11:58;3.49;95.31
68109;SHT30;54893;49.864;19.084;2023-04-08T23:16:58;3.46;95.16
68109;SHT30;54893;49.864;19.084;2023-04-08T23:21:59;3.48;95.01
68109;SHT30;54893;49.864;19.084;2023-04-08T23:26:59;3.48;94.90
68109;SHT30;54893;49.864;19.084;2023-04-08T23:32:00;3.46;95.13
68109;SHT30;54893;49.864;19.084;2023-04-08T23:37:01;3.42;95.19
68109;SHT30;54893;49.864;19.084;2023-04-08T23:42:03;3.42;95.32
68109;SHT30;54893;49.864;19.084;2023-04-08T23:47:03;3.44;95.66
68109;SHT30;54893;49.864;19.084;2023-04-08T23:52:04;3.44;95.77
68109;SHT30;54893;49.864;19.084;2023-04-08T23:57:04;3.44;95.88
